Time;durP1;ratioP1;P1;durP2;ratioP2;P2;SDS_P1;SDS_P2;PMS_P1;PMS_P2;Temp;Humidity;BMP_temperature;BMP_pressure;BME280_temperature;BME280_humidity;BME280_pressure;Samples;Min_cycle;Max_cycle;Signal;HPM_P1;HPM_P2
2022/10/23 00:01:23;;;;;;;1.42;1.00;;;16.80;90.10;;;;;;4970776;28;20033;-73
2022/10/23 00:03:55;;;;;;;2.88;1.30;;;16.90;90.10;;;;;;4971502;28;20042;-74
2022/10/23 00:06:21;;;;;;;1.85;1.05;;;16.90;90.10;;;;;;4989198;28;20026;-73
2022/10/23 00:08:48;;;;;;;2.17;1.20;;;16.80;90.10;;;;;;4972545;28;20496;-74
2022/10/23 00:11:16;;;;;;;2.15;1.30;;;16.80;90.00;;;;;;4989144;28;20070;-73
2022/10/23 00:13:42;;;;;;;3.25;1.40;;;16.80;90.00;;;;;;4990420;28;20039;-74
2022/10/23 00:16:08;;;;;;;2.90;1.45;;;16.80;90.10;;;;;;4991820;28;20057;-73
2022/10/23 00:18:34;;;;;;;2.20;1.15;;;16.80;90.10;;;;;;4991378;28;20432;-74
2022/10/23 00:21:00;;;;;;;2.72;1.20;;;16.80;90.10;;;;;;4989814;28;20112;-73
2022/10/23 00:23:25;;;;;;;2.28;1.35;;;16.80;90.20;;;;;;4989932;28;20030;-73
2022/10/23 00:25:51;;;;;;;2.60;1.20;;;16.80;90.20;;;;;;4972413;28;20061;-73
2022/10/23 00:28:17;;;;;;;2.03;1.30;;;16.70;90.20;;;;;;4988705;28;20034;-75
2022/10/23 00:30:42;;;;;;;2.13;1.20;;;16.80;90.30;;;;;;4989442;28;20038;-74
2022/10/23 00:33:09;;;;;;;1.85;1.20;;;16.80;90.30;;;;;;4988136;28;20084;-74
2022/10/23 00:35:37;;;;;;;2.65;1.33;;;16.70;90.30;;;;;;4987485;28;20033;-73
2022/10/23 00:38:03;;;;;;;1.83;1.25;;;16.80;90.30;;;;;;4987829;28;20105;-73
2022/10/23 00:40:28;;;;;;;2.58;1.20;;;16.70;90.30;;;;;;4990868;28;20602;-73
2022/10/23 00:42:54;;;;;;;2.53;1.30;;;16.70;90.30;;;;;;4990742;28;20127;-74
2022/10/23 00:45:26;;;;;;;3.03;1.40;;;16.70;90.30;;;;;;4990550;28;20033;-74
2022/10/23 00:47:52;;;;;;;2.45;1.10;;;16.70;90.30;;;;;;4990207;28;20468;-73
2022/10/23 00:50:22;;;;;;;3.03;1.35;;;16.70;90.30;;;;;;4990470;28;20026;-73
2022/10/23 00:52:50;;;;;;;2.92;1.50;;;16.70;90.30;;;;;;4990467;28;20037;-74
2022/10/23 00:55:18;;;;;;;2.08;1.30;;;16.70;90.30;;;;;;4990374;28;20378;-73
2022/10/23 00:57:46;;;;;;;2.88;1.23;;;16.70;90.30;;;;;;4989086;28;20023;-74
2022/10/23 01:00:21;;;;;;;2.60;1.20;;;16.70;90.30;;;;;;4989705;28;20034;-74
2022/10/23 01:02:46;;;;;;;1.88;1.10;;;16.70;90.20;;;;;;4988339;28;20399;-74
2022/10/23 01:05:12;;;;;;;2.17;1.17;;;16.80;90.20;;;;;;4988576;28;20038;-73
2022/10/23 01:07:51;;;;;;;2.92;1.38;;;16.80;90.10;;;;;;4988484;28;20030;-74
2022/10/23 01:10:19;;;;;;;2.60;1.30;;;16.80;90.10;;;;;;4970939;28;20027;-74
2022/10/23 01:13:11;;;;;;;1.80;1.20;;;16.80;90.10;;;;;;4970669;28;20053;-74
2022/10/23 01:15:47;;;;;;;2.30;1.30;;;16.80;90.00;;;;;;4987210;28;20065;-74
2022/10/23 01:18:24;;;;;;;1.98;1.20;;;16.80;90.00;;;;;;4988888;28;20026;-74
2022/10/23 01:20:58;;;;;;;2.33;1.20;;;16.80;90.10;;;;;;4969439;28;20074;-73
2022/10/23 01:23:39;;;;;;;2.03;1.20;;;16.80;90.10;;;;;;4987780;28;20031;-75
2022/10/23 01:26:34;;;;;;;1.67;1.23;;;16.70;90.10;;;;;;4969587;28;20038;-74
2022/10/23 01:29:22;;;;;;;1.77;1.20;;;16.70;90.20;;;;;;4970770;28;20398;-73
2022/10/23 01:31:59;;;;;;;1.90;1.23;;;16.70;90.20;;;;;;4965390;28;20034;-73
2022/10/23 01:34:42;;;;;;;3.67;1.50;;;16.70;90.20;;;;;;4954123;28;20093;-77
2022/10/23 01:37:12;;;;;;;2.75;1.40;;;16.70;90.30;;;;;;4952642;28;20035;-74
2022/10/23 01:39:44;;;;;;;2.28;1.17;;;16.70;90.30;;;;;;4969121;28;20066;-73
2022/10/23 01:42:14;;;;;;;3.40;1.33;;;16.70;90.30;;;;;;4952135;28;20026;-73
2022/10/23 01:44:52;;;;;;;2.28;1.45;;;16.70;90.30;;;;;;4952132;28;20027;-73
2022/10/23 01:47:22;;;;;;;2.78;1.40;;;16.80;90.30;;;;;;4967961;28;20045;-74
2022/10/23 01:49:50;;;;;;;2.28;1.25;;;16.70;90.30;;;;;;4968275;28;20027;-74
2022/10/23 01:52:17;;;;;;;2.92;1.48;;;16.70;90.30;;;;;;4969548;28;20086;-73
2022/10/23 01:54:46;;;;;;;2.50;1.52;;;16.70;90.30;;;;;;4968701;28;20093;-74
2022/10/23 01:57:16;;;;;;;1.60;1.10;;;16.70;90.30;;;;;;4969562;28;20380;-75
2022/10/23 01:59:50;;;;;;;2.70;1.35;;;16.70;90.30;;;;;;4953149;28;20030;-73
2022/10/23 02:02:17;;;;;;;2.30;1.20;;;16.70;90.30;;;;;;4952851;28;20027;-74
2022/10/23 02:05:08;;;;;;;2.53;1.40;;;16.70;90.20;;;;;;4969366;28;20042;-74
2022/10/23 02:07:34;;;;;;;2.58;1.40;;;16.70;90.20;;;;;;4951524;28;20031;-73
2022/10/23 02:10:03;;;;;;;2.47;1.50;;;16.70;90.10;;;;;;4969402;28;20037;-73
2022/10/23 02:12:50;;;;;;;2.53;1.27;;;16.80;90.10;;;;;;4969130;28;20023;-73
2022/10/23 02:15:28;;;;;;;2.53;1.38;;;16.80;90.10;;;;;;4969659;28;20034;-74
2022/10/23 02:18:16;;;;;;;1.88;1.13;;;16.80;90.00;;;;;;4970038;28;20019;-73
2022/10/23 02:20:50;;;;;;;2.67;1.27;;;16.80;90.00;;;;;;4969538;28;20045;-73
2022/10/23 02:23:28;;;;;;;2.75;1.50;;;16.80;90.10;;;;;;4968151;28;20023;-73
2022/10/23 02:26:06;;;;;;;2.63;1.48;;;16.70;90.10;;;;;;4969785;28;20023;-73
2022/10/23 02:28:42;;;;;;;2.50;1.35;;;16.70;90.10;;;;;;4969971;28;20400;-74
2022/10/23 02:31:11;;;;;;;2.55;1.55;;;16.70;90.10;;;;;;4969212;28;20397;-74
2022/10/23 02:33:37;;;;;;;2.22;1.35;;;16.70;90.20;;;;;;4969533;28;20390;-74
2022/10/23 02:36:02;;;;;;;2.42;1.42;;;16.70;90.20;;;;;;4969989;28;20038;-74
2022/10/23 02:38:39;;;;;;;2.45;1.40;;;16.70;90.20;;;;;;4968320;28;20026;-73
2022/10/23 02:41:23;;;;;;;2.38;1.30;;;16.70;90.20;;;;;;4968790;28;20026;-74
2022/10/23 02:43:49;;;;;;;3.17;1.50;;;16.70;90.30;;;;;;4969153;28;20057;-73
2022/10/23 02:46:27;;;;;;;2.63;1.50;;;16.70;90.30;;;;;;4977744;28;20522;-74
2022/10/23 02:49:08;;;;;;;3.50;1.73;;;16.70;90.30;;;;;;4971226;28;20022;-73
2022/10/23 02:51:43;;;;;;;;;;;16.70;90.30;;;;;;4988652;28;20034;-72
2022/10/23 02:54:23;;;;;;;3.28;1.50;;;16.70;90.30;;;;;;4988949;28;19914;-73
2022/10/23 02:56:52;;;;;;;2.67;1.50;;;16.70;90.30;;;;;;4988648;28;20042;-75
2022/10/23 02:59:40;;;;;;;2.92;1.50;;;16.70;90.30;;;;;;4989675;28;20043;-73
2022/10/23 03:02:20;;;;;;;2.15;1.30;;;16.60;90.20;;;;;;4989123;28;20058;-74
2022/10/23 03:04:46;;;;;;;2.08;1.35;;;16.60;90.20;;;;;;4989382;28;20034;-74
2022/10/23 03:07:13;;;;;;;2.78;1.52;;;16.70;90.30;;;;;;4986629;28;20104;-73
2022/10/23 03:09:39;;;;;;;3.22;1.55;;;16.70;90.20;;;;;;4986142;28;20507;-72
2022/10/23 03:12:05;;;;;;;2.95;1.30;;;16.70;90.10;;;;;;4995249;28;20066;-74
2022/10/23 03:14:30;;;;;;;2.35;1.40;;;16.70;90.10;;;;;;4997017;28;20587;-74
2022/10/23 03:16:56;;;;;;;2.95;1.40;;;16.70;90.00;;;;;;4968614;28;20125;-73
2022/10/23 03:19:21;;;;;;;2.83;1.50;;;16.70;90.00;;;;;;4991139;28;20062;-74
2022/10/23 03:21:47;;;;;;;3.17;1.20;;;16.70;90.00;;;;;;4991624;28;20046;-74
2022/10/23 03:24:12;;;;;;;2.33;1.30;;;16.70;90.00;;;;;;4993179;28;20061;-72
2022/10/23 03:26:38;;;;;;;2.10;1.48;;;16.70;90.00;;;;;;4970156;28;20043;-73
2022/10/23 03:29:03;;;;;;;2.92;1.58;;;16.70;90.00;;;;;;4980439;28;20058;-74
2022/10/23 03:31:29;;;;;;;3.05;1.65;;;16.70;90.00;;;;;;4972473;28;20030;-74
2022/10/23 03:33:54;;;;;;;2.95;1.50;;;16.70;90.10;;;;;;4984193;28;20030;-75
2022/10/23 03:36:20;;;;;;;2.50;1.42;;;16.70;90.10;;;;;;4991258;28;20031;-74
2022/10/23 03:38:45;;;;;;;2.35;1.40;;;16.70;90.10;;;;;;4991282;28;20041;-74
2022/10/23 03:41:11;;;;;;;2.67;1.52;;;16.70;90.10;;;;;;4989489;28;20041;-73
2022/10/23 03:43:36;;;;;;;3.17;1.65;;;16.70;90.20;;;;;;4991783;28;20049;-73
2022/10/23 03:46:07;;;;;;;2.72;1.60;;;16.60;90.20;;;;;;4973916;28;20031;-74
2022/10/23 03:48:36;;;;;;;2.80;1.58;;;16.70;90.20;;;;;;4991145;28;20503;-73
2022/10/23 03:51:03;;;;;;;2.95;1.65;;;16.60;90.20;;;;;;4968796;28;20035;-74
2022/10/23 03:53:28;;;;;;;3.47;1.80;;;16.60;90.20;;;;;;4969588;28;20041;-74
2022/10/23 03:55:54;;;;;;;2.55;1.40;;;16.60;90.20;;;;;;4974227;28;20034;-73
2022/10/23 03:58:19;;;;;;;2.35;1.60;;;16.60;90.40;;;;;;4994616;28;20068;-73
2022/10/23 04:00:45;;;;;;;2.58;1.60;;;16.70;90.20;;;;;;4993870;28;20022;-75
2022/10/23 04:03:10;;;;;;;3.35;1.48;;;16.60;90.20;;;;;;4993939;28;20038;-73
2022/10/23 04:05:36;;;;;;;3.15;1.70;;;16.60;90.20;;;;;;4974333;28;20511;-73
2022/10/23 04:08:02;;;;;;;3.13;1.80;;;16.60;90.20;;;;;;4990259;28;20077;-73
2022/10/23 04:10:27;;;;;;;3.50;2.00;;;16.60;90.20;;;;;;4991727;28;20522;-73
2022/10/23 04:12:53;;;;;;;2.95;1.60;;;16.70;90.20;;;;;;4974212;28;20551;-72
2022/10/23 04:15:18;;;;;;;2.63;1.50;;;16.80;90.10;;;;;;4994489;28;20041;-73
2022/10/23 04:17:44;;;;;;;3.47;1.70;;;16.70;90.10;;;;;;4992555;28;20030;-74
2022/10/23 04:20:09;;;;;;;3.60;1.67;;;16.70;90.00;;;;;;4990399;28;20452;-73
2022/10/23 04:22:35;;;;;;;3.17;1.70;;;16.70;90.00;;;;;;4992475;28;20080;-74
2022/10/23 04:25:00;;;;;;;2.53;1.40;;;16.70;90.00;;;;;;4973439;28;20022;-73
2022/10/23 04:27:26;;;;;;;2.45;1.38;;;16.70;90.00;;;;;;4990731;28;20085;-74
2022/10/23 04:29:51;;;;;;;2.88;1.50;;;16.70;90.00;;;;;;4987085;28;20227;-73
2022/10/23 04:32:17;;;;;;;2.97;1.77;;;16.70;90.00;;;;;;4989131;28;20026;-73
2022/10/23 04:34:42;;;;;;;3.25;1.77;;;16.70;90.00;;;;;;4989606;28;20038;-73
2022/10/23 04:37:08;;;;;;;2.50;1.40;;;16.70;90.20;;;;;;4974052;28;20106;-73
2022/10/23 04:39:34;;;;;;;3.10;1.77;;;16.70;90.00;;;;;;4989188;28;20404;-74
2022/10/23 04:41:59;;;;;;;2.63;1.60;;;16.70;90.10;;;;;;4972914;28;20018;-74
2022/10/23 04:44:25;;;;;;;2.45;1.70;;;16.60;90.10;;;;;;4976959;28;20035;-74
2022/10/23 04:46:50;;;;;;;2.65;1.52;;;16.60;90.10;;;;;;4987188;28;20152;-74
2022/10/23 04:49:16;;;;;;;2.47;1.60;;;16.60;90.10;;;;;;4990154;28;20030;-73
2022/10/23 04:51:41;;;;;;;3.80;1.80;;;16.60;90.10;;;;;;4979918;28;20042;-74
2022/10/23 04:54:08;;;;;;;2.20;1.42;;;16.60;90.10;;;;;;4995968;28;20030;-74
2022/10/23 04:56:34;;;;;;;3.00;1.70;;;16.60;90.10;;;;;;4990549;28;20145;-73
2022/10/23 04:59:00;;;;;;;2.58;1.60;;;16.60;90.10;;;;;;4990963;28;20049;-74
2022/10/23 05:01:26;;;;;;;3.67;1.60;;;16.70;90.20;;;;;;4990338;28;20022;-73
2022/10/23 05:03:52;;;;;;;2.45;1.60;;;16.60;90.20;;;;;;4973470;28;20034;-74
2022/10/23 05:06:18;;;;;;;2.97;1.70;;;16.60;90.20;;;;;;4992014;28;20026;-73
2022/10/23 05:08:44;;;;;;;3.50;1.80;;;16.60;90.20;;;;;;4989733;28;20034;-75
2022/10/23 05:11:10;;;;;;;3.20;1.70;;;16.60;90.20;;;;;;4991356;28;20037;-73
2022/10/23 05:13:35;;;;;;;3.03;1.75;;;16.60;90.10;;;;;;4991538;28;20437;-74
2022/10/23 05:16:01;;;;;;;2.88;1.73;;;16.60;90.10;;;;;;4991610;28;20037;-72
2022/10/23 05:18:45;;;;;;;2.55;1.65;;;16.60;90.10;;;;;;4990865;28;20046;-74
2022/10/23 05:21:17;;;;;;;3.80;1.80;;;16.60;90.00;;;;;;4990264;28;20210;-73
2022/10/23 05:23:44;;;;;;;2.65;1.55;;;16.60;90.00;;;;;;4991080;28;20034;-74
2022/10/23 05:26:09;;;;;;;4.32;1.50;;;16.70;90.00;;;;;;4991557;28;20031;-74
2022/10/23 05:28:35;;;;;;;3.33;1.60;;;16.70;89.90;;;;;;4990936;28;20042;-74
2022/10/23 05:31:03;;;;;;;2.78;1.58;;;16.70;89.80;;;;;;4973678;28;20038;-74
2022/10/23 05:33:29;;;;;;;2.05;1.50;;;16.70;89.90;;;;;;4989304;28;20084;-74
2022/10/23 05:35:55;;;;;;;2.90;1.60;;;16.70;89.90;;;;;;4989496;28;20034;-76
2022/10/23 05:38:21;;;;;;;3.08;1.83;;;16.70;90.00;;;;;;4991358;28;20023;-74
2022/10/23 05:40:46;;;;;;;3.42;1.67;;;16.60;90.00;;;;;;4990540;28;20035;-73
2022/10/23 05:43:12;;;;;;;3.03;1.67;;;16.60;90.00;;;;;;4990076;28;20022;-72
2022/10/23 05:45:37;;;;;;;2.83;1.52;;;16.60;90.00;;;;;;4989760;28;20042;-76
2022/10/23 05:48:03;;;;;;;2.38;1.50;;;16.60;90.00;;;;;;4968103;28;20165;-74
2022/10/23 05:50:29;;;;;;;3.60;1.90;;;16.60;90.00;;;;;;4971548;28;20042;-75
2022/10/23 05:52:54;;;;;;;3.45;1.92;;;16.60;90.00;;;;;;4990173;28;20037;-75
2022/10/23 05:55:20;;;;;;;3.05;1.90;;;16.60;90.00;;;;;;4988819;28;20026;-75
2022/10/23 05:57:46;;;;;;;4.07;1.95;;;16.60;90.10;;;;;;4988887;28;20067;-74
2022/10/23 06:00:12;;;;;;;3.00;1.80;;;16.60;90.00;;;;;;4988163;28;20069;-74
2022/10/23 06:02:37;;;;;;;2.47;1.50;;;16.60;90.10;;;;;;4988532;28;20062;-73
2022/10/23 06:05:03;;;;;;;2.88;1.73;;;16.60;90.20;;;;;;4988625;28;20058;-73
2022/10/23 06:07:29;;;;;;;2.85;1.77;;;16.60;90.10;;;;;;4988236;28;20038;-74
2022/10/23 06:09:55;;;;;;;3.35;1.75;;;16.60;90.10;;;;;;4990515;28;20030;-72
2022/10/23 06:12:21;;;;;;;2.58;1.70;;;16.60;90.10;;;;;;4970279;28;20062;-73
2022/10/23 06:14:47;;;;;;;2.90;1.73;;;16.60;90.10;;;;;;4985384;28;20058;-74
2022/10/23 06:17:13;;;;;;;3.15;1.83;;;16.60;90.10;;;;;;4973413;28;20057;-74
2022/10/23 06:19:38;;;;;;;3.35;1.90;;;16.70;90.10;;;;;;5002041;28;20094;-75
2022/10/23 06:22:04;;;;;;;3.25;1.85;;;16.60;90.00;;;;;;4982301;28;20563;-73
2022/10/23 06:24:30;;;;;;;3.30;1.77;;;16.60;90.00;;;;;;4971044;28;20053;-73
2022/10/23 06:26:56;;;;;;;4.10;1.85;;;16.60;90.00;;;;;;4986568;28;20026;-75
2022/10/23 06:29:22;;;;;;;4.03;1.80;;;16.60;89.80;;;;;;4990177;28;20037;-73
2022/10/23 06:31:47;;;;;;;3.88;1.98;;;16.60;89.60;;;;;;4963267;28;20308;-73
2022/10/23 06:34:14;;;;;;;2.97;1.90;;;16.60;89.60;;;;;;4974227;28;20828;-73
2022/10/23 06:36:39;;;;;;;2.75;1.80;;;16.60;89.40;;;;;;4973263;28;20026;-73
2022/10/23 06:39:05;;;;;;;3.05;1.80;;;16.70;89.50;;;;;;4975676;28;20023;-75
2022/10/23 06:41:31;;;;;;;3.63;1.90;;;16.60;89.40;;;;;;4990681;28;20037;-76
2022/10/23 06:43:56;;;;;;;3.33;2.08;;;16.60;89.40;;;;;;4974807;28;20026;-75
2022/10/23 06:46:22;;;;;;;4.15;2.08;;;16.60;89.50;;;;;;4990888;28;20069;-76
2022/10/23 06:48:48;;;;;;;3.03;1.73;;;16.60;89.60;;;;;;4993068;28;20065;-74
2022/10/23 06:51:16;;;;;;;4.05;1.70;;;16.60;89.60;;;;;;4986480;28;20030;-74
2022/10/23 06:53:43;;;;;;;3.72;2.00;;;16.50;89.60;;;;;;4995858;28;20040;-74
2022/10/23 06:56:09;;;;;;;3.63;1.77;;;16.60;89.70;;;;;;4993218;28;20026;-75
2022/10/23 06:58:37;;;;;;;3.80;2.03;;;16.60;89.80;;;;;;4990217;28;20022;-75
2022/10/23 07:01:06;;;;;;;5.22;1.98;;;16.60;89.80;;;;;;4991005;28;20030;-74
2022/10/23 07:03:33;;;;;;;5.20;2.17;;;16.60;89.90;;;;;;5004816;28;20034;-75
2022/10/23 07:06:03;;;;;;;3.47;1.95;;;16.70;90.00;;;;;;4990520;28;20026;-74
2022/10/23 07:08:29;;;;;;;3.88;2.10;;;16.60;89.90;;;;;;4991279;28;20030;-75
2022/10/23 07:10:55;;;;;;;3.33;1.90;;;16.60;89.90;;;;;;4989486;28;20065;-74
2022/10/23 07:13:21;;;;;;;3.70;1.80;;;16.60;89.90;;;;;;4989480;28;20050;-75
2022/10/23 07:15:46;;;;;;;3.83;1.90;;;16.60;89.90;;;;;;4990305;28;20034;-75
2022/10/23 07:18:15;;;;;;;3.47;1.80;;;16.60;90.10;;;;;;4990423;28;20027;-74
2022/10/23 07:20:41;;;;;;;3.05;1.85;;;16.60;89.90;;;;;;4989335;28;20026;-76
2022/10/23 07:23:06;;;;;;;4.75;1.95;;;16.60;89.90;;;;;;4972398;28;20057;-76
2022/10/23 07:25:32;;;;;;;3.72;2.10;;;16.60;89.90;;;;;;4989607;28;20034;-75
2022/10/23 07:27:58;;;;;;;4.10;2.00;;;16.60;89.80;;;;;;4972188;28;20554;-74
2022/10/23 07:30:24;;;;;;;3.72;1.85;;;16.50;89.70;;;;;;4980504;28;20052;-75
2022/10/23 07:32:50;;;;;;;3.38;2.00;;;16.70;89.70;;;;;;4993218;28;20038;-74
2022/10/23 07:35:16;;;;;;;5.10;2.10;;;16.60;89.50;;;;;;5008725;28;20052;-75
2022/10/23 07:37:42;;;;;;;3.70;1.80;;;16.60;89.40;;;;;;5002426;28;20039;-74
2022/10/23 07:40:08;;;;;;;3.38;1.98;;;16.70;89.40;;;;;;4983316;28;20035;-76
2022/10/23 07:42:37;;;;;;;3.88;1.83;;;16.70;89.40;;;;;;4995396;28;20320;-74
2022/10/23 07:45:03;;;;;;;3.75;2.15;;;16.70;89.40;;;;;;4991544;28;20026;-75
2022/10/23 07:47:31;;;;;;;4.03;2.20;;;16.70;89.40;;;;;;4989709;28;20038;-74
2022/10/23 07:49:57;;;;;;;3.65;2.10;;;16.70;89.40;;;;;;4990105;28;20104;-74
2022/10/23 07:52:22;;;;;;;4.00;1.80;;;16.70;89.40;;;;;;4969738;28;20097;-75
2022/10/23 07:54:51;;;;;;;3.25;1.73;;;16.60;89.50;;;;;;4991346;28;20038;-74
2022/10/23 07:57:16;;;;;;;3.80;1.95;;;16.70;89.60;;;;;;4968096;28;20141;-75
2022/10/23 07:59:42;;;;;;;3.47;1.90;;;16.60;89.60;;;;;;4983345;28;20078;-75
2022/10/23 08:02:12;;;;;;;3.92;2.33;;;16.60;89.70;;;;;;4980443;28;20022;-75
2022/10/23 08:04:38;;;;;;;3.15;1.90;;;16.60;89.60;;;;;;4988464;28;20046;-75
2022/10/23 08:07:03;;;;;;;3.70;2.05;;;16.70;89.60;;;;;;4992393;28;20022;-75
2022/10/23 08:09:29;;;;;;;3.75;2.10;;;16.60;89.60;;;;;;4975438;28;20058;-75
2022/10/23 08:11:54;;;;;;;3.20;2.15;;;16.70;89.60;;;;;;4973660;28;20061;-75
2022/10/23 08:14:20;;;;;;;3.22;1.80;;;16.70;89.60;;;;;;4990508;28;20500;-74
2022/10/23 08:16:45;;;;;;;3.15;1.85;;;16.70;89.60;;;;;;4989938;28;20054;-75
2022/10/23 08:19:11;;;;;;;3.92;1.70;;;16.70;89.50;;;;;;4996703;28;20033;-74
2022/10/23 08:21:36;;;;;;;3.45;1.90;;;16.70;89.40;;;;;;4997152;28;20030;-75
2022/10/23 08:24:03;;;;;;;3.30;2.00;;;16.70;89.40;;;;;;4989095;28;20579;-74
2022/10/23 08:26:29;;;;;;;2.88;1.90;;;16.70;89.40;;;;;;4989518;28;20031;-74
2022/10/23 08:28:57;;;;;;;5.10;2.30;;;16.70;89.40;;;;;;4980753;28;20166;-75
2022/10/23 08:31:22;;;;;;;3.10;1.77;;;16.70;89.30;;;;;;4973372;28;20026;-75
2022/10/23 08:33:48;;;;;;;3.00;1.90;;;16.70;89.30;;;;;;4962567;28;20047;-74
2022/10/23 08:36:19;;;;;;;4.18;1.73;;;16.70;89.20;;;;;;4971501;28;20018;-75
2022/10/23 08:38:45;;;;;;;3.80;1.92;;;16.80;89.20;;;;;;4969597;28;20023;-75
2022/10/23 08:41:42;;;;;;;3.95;1.95;;;16.80;89.70;;;;;;4991917;28;20026;-76
2022/10/23 08:44:29;;;;;;;3.40;2.00;;;16.70;89.50;;;;;;4990591;28;20023;-74
2022/10/23 08:47:10;;;;;;;3.15;1.80;;;16.70;89.00;;;;;;4992032;28;20034;-75
2022/10/23 08:49:45;;;;;;;2.97;1.80;;;16.80;89.10;;;;;;4998044;28;20173;-75
2022/10/23 08:52:38;;;;;;;3.42;2.00;;;16.80;89.10;;;;;;4991509;28;20034;-75
2022/10/23 08:55:19;;;;;;;2.97;1.88;;;16.70;89.10;;;;;;4972032;28;20109;-75
2022/10/23 08:58:16;;;;;;;2.78;1.80;;;16.80;89.20;;;;;;4972319;28;20027;-76
2022/10/23 09:00:43;;;;;;;3.35;1.92;;;16.70;89.20;;;;;;4966011;28;20101;-75
2022/10/23 09:03:11;;;;;;;2.90;1.80;;;16.70;89.30;;;;;;4987027;28;20070;-78
2022/10/23 09:05:55;;;;;;;3.65;1.70;;;16.70;89.30;;;;;;4989535;28;20041;-74
2022/10/23 09:08:37;;;;;;;2.78;1.80;;;16.70;89.30;;;;;;4973280;28;20030;-75
2022/10/23 09:11:04;;;;;;;3.33;1.77;;;16.70;89.30;;;;;;4992667;28;20038;-81
2022/10/23 09:13:54;;;;;;;3.28;1.90;;;16.70;89.40;;;;;;5000336;28;20050;-76
2022/10/23 09:16:44;;;;;;;3.20;1.65;;;16.70;89.40;;;;;;5000514;28;20492;-75
2022/10/23 09:19:19;;;;;;;3.08;2.05;;;16.70;89.40;;;;;;4976443;28;20077;-76
2022/10/23 09:21:48;;;;;;;3.28;1.73;;;16.70;89.40;;;;;;4996466;28;20065;-77
2022/10/23 09:24:17;;;;;;;2.97;1.77;;;16.70;89.50;;;;;;4993345;28;20026;-77
2022/10/23 09:26:47;;;;;;;3.00;1.83;;;16.70;89.50;;;;;;4974662;28;20049;-77
2022/10/23 09:29:31;;;;;;;3.58;1.88;;;16.70;89.40;;;;;;4986940;28;20388;-77
2022/10/23 09:31:59;;;;;;;4.13;2.15;;;16.70;89.40;;;;;;4991780;28;20404;-77
2022/10/23 09:34:28;;;;;;;2.83;1.70;;;16.70;89.40;;;;;;4977021;28;20022;-76
2022/10/23 09:36:56;;;;;;;3.20;1.90;;;16.70;89.40;;;;;;4997815;28;20033;-77
2022/10/23 09:39:26;;;;;;;3.45;2.08;;;16.70;89.20;;;;;;4997512;28;20027;-76
2022/10/23 09:41:52;;;;;;;2.55;1.70;;;16.70;89.30;;;;;;4980742;28;20090;-77
2022/10/23 09:44:21;;;;;;;3.38;1.90;;;16.80;89.20;;;;;;4999775;28;20074;-76
2022/10/23 09:47:12;;;;;;;3.15;1.90;;;16.80;89.10;;;;;;4998824;28;20040;-76
2022/10/23 09:49:45;;;;;;;3.50;1.90;;;16.90;89.00;;;;;;4997207;28;20031;-75
2022/10/23 09:52:10;;;;;;;4.43;2.50;;;16.90;88.80;;;;;;4995321;28;20026;-78
2022/10/23 09:54:50;;;;;;;3.00;1.88;;;16.90;88.70;;;;;;4980225;28;20031;-76
2022/10/23 09:57:21;;;;;;;3.53;1.80;;;16.90;88.60;;;;;;4997996;28;20073;-77
2022/10/23 09:59:57;;;;;;;3.33;1.50;;;16.90;88.60;;;;;;4997705;28;20134;-77
2022/10/23 10:02:33;;;;;;;4.40;2.10;;;16.90;88.50;;;;;;4983922;28;20106;-77
2022/10/23 10:04:58;;;;;;;3.35;1.73;;;17.00;88.50;;;;;;4987760;28;20030;-77
2022/10/23 10:07:29;;;;;;;3.72;1.80;;;17.00;88.40;;;;;;4979643;28;20030;-77
2022/10/23 10:09:56;;;;;;;2.88;1.85;;;17.00;88.40;;;;;;4995542;28;20030;-77
2022/10/23 10:12:47;;;;;;;3.30;1.80;;;16.90;88.20;;;;;;4999645;28;20019;-76
2022/10/23 10:15:24;;;;;;;3.85;2.20;;;17.00;88.30;;;;;;5000607;28;20063;-77
2022/10/23 10:18:00;;;;;;;3.00;1.48;;;17.00;88.30;;;;;;5000470;28;20061;-77
2022/10/23 10:20:48;;;;;;;2.78;1.67;;;17.00;88.30;;;;;;4998888;28;20030;-77
2022/10/23 10:23:49;;;;;;;3.65;1.80;;;17.00;88.30;;;;;;4996577;28;20499;-77
2022/10/23 10:26:49;;;;;;;3.42;1.98;;;17.00;88.40;;;;;;4995926;28;20033;-77
2022/10/23 10:29:45;;;;;;;3.38;1.70;;;17.00;88.50;;;;;;4987176;28;20115;-77
2022/10/23 10:32:36;;;;;;;3.10;1.80;;;17.00;88.60;;;;;;4993961;28;20018;-77
2022/10/23 10:35:26;;;;;;;2.58;1.60;;;17.00;88.60;;;;;;4987744;28;20038;-77
2022/10/23 10:38:15;;;;;;;3.05;1.65;;;16.90;88.60;;;;;;4978397;28;20401;-77
2022/10/23 10:40:45;;;;;;;2.67;1.60;;;16.90;88.60;;;;;;4995152;28;20037;-76
2022/10/23 10:43:50;;;;;;;3.92;1.80;;;16.90;88.60;;;;;;4979719;28;20037;-76
2022/10/23 10:46:23;;;;;;;3.03;1.65;;;17.00;88.60;;;;;;4992805;28;20032;-77
2022/10/23 10:49:04;;;;;;;3.58;1.65;;;17.00;88.60;;;;;;4977904;28;20298;-77
2022/10/23 10:51:35;;;;;;;;;;;17.00;88.50;;;;;;4981158;28;20056;-78
2022/10/23 10:54:21;;;;;;;3.25;1.92;;;17.00;88.40;;;;;;4997123;28;19952;-79
2022/10/23 10:56:47;;;;;;;2.35;1.70;;;17.00;88.40;;;;;;4995183;28;20030;-77
2022/10/23 10:59:41;;;;;;;2.95;1.60;;;17.10;88.50;;;;;;4978495;28;20023;-76
2022/10/23 11:02:24;;;;;;;2.10;1.50;;;17.00;88.40;;;;;;4988105;28;20117;-77
2022/10/23 11:04:56;;;;;;;2.63;1.60;;;17.00;88.50;;;;;;4987281;28;20140;-78
2022/10/23 11:07:24;;;;;;;;;;;17.00;88.50;;;;;;4987850;28;20440;-76
2022/10/23 11:09:50;;;;;;;4.25;1.75;;;17.00;89.00;;;;;;4981950;28;19912;-76
2022/10/23 11:12:19;;;;;;;2.70;1.63;;;17.00;88.50;;;;;;4999028;28;20477;-77
2022/10/23 11:14:45;;;;;;;3.38;1.55;;;17.00;88.60;;;;;;4993503;28;20018;-79
2022/10/23 11:17:25;;;;;;;2.33;1.40;;;17.00;88.70;;;;;;4972987;28;20385;-78
2022/10/23 11:19:58;;;;;;;2.75;1.60;;;17.00;88.70;;;;;;4978103;28;20660;-76
2022/10/23 11:22:35;;;;;;;2.60;1.60;;;17.00;88.80;;;;;;4979432;28;20050;-77
2022/10/23 11:25:32;;;;;;;2.88;1.65;;;18.50;89.60;;;;;;4995379;28;20029;-77
2022/10/23 11:28:12;;;;;;;2.60;1.63;;;17.00;88.60;;;;;;4982772;28;20022;-77
2022/10/23 11:31:05;;;;;;;3.17;1.88;;;18.30;89.30;;;;;;4993067;28;20019;-77
2022/10/23 11:33:49;;;;;;;2.88;1.50;;;17.00;88.60;;;;;;4998479;28;20099;-77
2022/10/23 11:36:18;;;;;;;1.95;1.42;;;17.00;88.70;;;;;;4980847;28;20038;-77
2022/10/23 11:38:50;;;;;;;4.28;1.77;;;17.00;88.70;;;;;;4995001;28;20030;-77
2022/10/23 11:41:21;;;;;;;2.40;1.70;;;17.00;88.80;;;;;;4985299;28;20102;-77
2022/10/23 11:44:02;;;;;;;3.15;1.63;;;17.00;88.90;;;;;;4979872;28;20034;-79
2022/10/23 11:46:34;;;;;;;2.80;1.65;;;16.90;88.80;;;;;;4992763;28;20551;-77
2022/10/23 11:49:01;;;;;;;3.05;1.60;;;16.90;88.80;;;;;;4991862;28;20519;-78
2022/10/23 11:51:34;;;;;;;4.00;1.80;;;17.00;88.90;;;;;;4967916;28;20034;-77
2022/10/23 11:54:09;;;;;;;2.60;1.60;;;17.00;88.80;;;;;;4989925;28;20023;-77
2022/10/23 11:56:35;;;;;;;4.03;1.80;;;16.90;88.80;;;;;;4974342;28;20040;-76
2022/10/23 11:59:18;;;;;;;2.72;1.40;;;17.00;88.90;;;;;;4991652;28;20019;-77
2022/10/23 12:01:44;;;;;;;2.85;1.58;;;17.00;88.80;;;;;;4998522;28;20030;-76
2022/10/23 12:04:13;;;;;;;2.85;1.40;;;17.00;88.70;;;;;;4995278;28;20035;-77
2022/10/23 12:06:46;;;;;;;3.58;1.52;;;17.00;88.70;;;;;;4980602;28;20037;-77
2022/10/23 12:09:23;;;;;;;2.83;1.70;;;17.00;88.70;;;;;;4986772;28;20031;-77
2022/10/23 12:12:20;;;;;;;3.03;1.50;;;17.00;88.70;;;;;;4996287;28;20022;-76
2022/10/23 12:14:48;;;;;;;4.03;1.60;;;16.90;88.70;;;;;;4986095;28;20049;-77
2022/10/23 12:17:23;;;;;;;2.72;1.70;;;16.90;88.80;;;;;;4997906;28;20026;-77
2022/10/23 12:19:51;;;;;;;4.10;1.80;;;16.90;88.90;;;;;;4978924;28;20101;-77
2022/10/23 12:22:19;;;;;;;2.45;1.55;;;16.80;89.00;;;;;;4995552;28;20026;-74
2022/10/23 12:25:34;;;;;;;2.70;1.50;;;16.90;89.10;;;;;;4998225;28;20033;-74
2022/10/23 12:28:07;;;;;;;3.70;1.60;;;16.90;89.20;;;;;;4935127;29;20016;-74
2022/10/23 12:30:55;;;;;;;2.55;1.60;;;16.90;89.20;;;;;;4936219;29;20032;-74
2022/10/23 12:33:43;;;;;;;3.42;1.50;;;16.90;89.30;;;;;;4969778;28;20026;-79
2022/10/23 12:36:39;;;;;;;2.28;1.40;;;16.80;89.20;;;;;;4998266;28;20023;-76
2022/10/23 12:39:25;;;;;;;3.33;1.80;;;16.90;89.30;;;;;;5000490;28;20030;-75
2022/10/23 12:41:51;;;;;;;2.35;1.50;;;16.90;89.30;;;;;;4985754;28;20037;-77
2022/10/23 12:44:17;;;;;;;2.40;1.42;;;16.80;89.30;;;;;;4983563;28;20058;-76
2022/10/23 12:46:47;;;;;;;2.92;1.70;;;16.90;89.50;;;;;;4992873;28;20054;-78
2022/10/23 12:49:19;;;;;;;3.08;1.50;;;16.80;89.40;;;;;;4996410;28;20527;-77
2022/10/23 12:51:54;;;;;;;3.60;1.50;;;16.80;89.40;;;;;;4978426;28;20041;-76
2022/10/23 12:54:20;;;;;;;2.65;1.38;;;16.80;89.40;;;;;;4997691;28;20053;-76
2022/10/23 12:56:47;;;;;;;3.58;1.52;;;16.70;89.30;;;;;;4997584;28;20029;-73
2022/10/23 12:59:17;;;;;;;2.90;1.60;;;16.80;89.40;;;;;;4976381;28;20435;-74
2022/10/23 13:01:43;;;;;;;2.05;1.30;;;16.80;89.40;;;;;;4993138;28;20022;-74
2022/10/23 14:56:02;;;;;;;2.28;1.30;;;16.80;89.50;;;;;;5235273;23;20052;-77
2022/10/23 14:58:27;;;;;;;3.10;1.40;;;16.80;89.60;;;;;;4889986;29;20037;-76
2022/10/23 15:00:58;;;;;;;3.88;1.20;;;16.80;89.60;;;;;;4895353;29;20088;-77